SondeTracker

Meteorological Radiosondes Database

Operations

Sounding was ended - last measurement: 2022-12-06 01:24:33z

MAP
About Radiosonde

Number: U2450583

Launch Site: Boise [ID] (US)

Type: RS41

AUX: NO

Frequency: 404.800 MHz

Max Speed: 159 km/h at 35072 m

Average Speed: 66.62 km/h

Max Altitude: 35072 m

Average Ascent Speed: 5.26 m/s

Average Descent Speed: 15.97 m/s

Status: UNKNOWN

Status Changes
Launch Site Type AUX Frequency Status Finder Landing Point Description Changes made by
APRS Statistics

Received Frames: 105

First Frame [UTC]: 2022-12-05 23:11:16z

Last Frame [UTC]: 2022-12-06 01:24:33z

Receivers: N7ZDX-2

Flight Time: 02:13:17 h

Distance From First Measurement: 116.86 km

Nearest City: Hailey [ID] (US) [52.20 km]

Nearest Hunter: N7ZDX [81.58 km]

Ground Altitude: 1542 m

Distance from QTH: 0.00 km

APRS Data
Receiver Number Date/Time [UTC] φ λ Course [°] Speed [km/h] Altitude [m] Description
N7ZDX-2U24505832022-12-06 01:24:3343.2237-114.807122261912Clb=-9.0m/s t=-2.5C h=64.8% p=-1.0hPa 404.800 MHz Type=RS41-NG ser=U2450583 Radiosonde
N7ZDX-2U24505832022-12-06 01:23:3143.224-114.808120261995Clb=-8.9m/s t=-3.3C h=67.4% p=-1.0hPa 404.800 MHz Type=RS41-NG ser=U2450583 Radiosonde
N7ZDX-2U24505832022-12-06 01:22:3043.2255-114.81592412537Clb=-8.6m/s t=-7.4C h=77.5% p=-1.0hPa 404.800 MHz Type=RS41-NG ser=U2450583 Radiosonde
N7ZDX-2U24505832022-12-06 01:21:2943.2258-114.82493433095Clb=-8.8m/s t=-12.1C h=88.7% p=-1.0hPa 404.800 MHz Type=RS41-NG ser=U2450583 Radiosonde
N7ZDX-2U24505832022-12-06 01:20:2843.2262-114.83392433663Clb=-9.9m/s t=-15.0C h=77.2% p=-1.0hPa 404.800 MHz Type=RS41-NG ser=U2450583 Radiosonde
N7ZDX-2U24505832022-12-06 01:19:2743.2268-114.84188354272Clb=-9.5m/s t=-18.9C h=55.6% p=-1.0hPa 404.800 MHz Type=RS41-NG ser=U2450583 Radiosonde
N7ZDX-2U24505832022-12-06 01:18:2643.2274-114.85498395187Clb=-8.6m/s t=-25.8C h=26.4% p=-1.0hPa 404.800 MHz Type=RS41-NG ser=U2450583 Radiosonde
N7ZDX-2U24505832022-12-06 01:17:2643.2277-114.85797415387Clb=-8.4m/s t=-27.5C h=21.1% p=-1.0hPa 404.800 MHz Type=RS41-NG ser=U2450583 Radiosonde
N7ZDX-2U24505832022-12-06 01:16:2443.229-114.868100545893Clb=-9.6m/s t=-31.8C h=28.4% p=-1.0hPa 404.800 MHz Type=RS41-NG ser=U2450583 Radiosonde
N7ZDX-2U24505832022-12-06 01:15:2643.2297-114.88293446826Clb=-11.8m/s t=-39.3C h=23.1% p=-1.0hPa 404.800 MHz Type=RS41-NG ser=U2450583 Radiosonde
N7ZDX-2U24505832022-12-06 01:14:2743.2303-114.885193157363Clb=-13.2m/s t=-41.7C h=17.1% p=-1.0hPa 404.800 MHz Type=RS41-NG ser=U2450583 Radiosonde
N7ZDX-2U24505832022-12-06 01:13:2743.2361-114.878228578234Clb=-13.8m/s t=-46.0C h=38.0% p=-1.0hPa 404.800 MHz Type=RS41-NG ser=U2450583 Radiosonde
N7ZDX-2U24505832022-12-06 01:12:2443.2412-114.868245528966Clb=-11.6m/s t=-52.0C h=29.7% p=-1.0hPa 404.800 MHz Type=RS41-NG ser=U2450583 Radiosonde
N7ZDX-2U24505832022-12-06 01:11:2343.2446-114.864162159698Clb=-13.3m/s t=-53.8C h=4.5% p=-1.0hPa 404.800 MHz Type=RS41-NG ser=U2450583 Radiosonde
N7ZDX-2U24505832022-12-06 01:10:2143.2419-114.875667010697Clb=-13.7m/s t=-54.0C h=2.5% p=-1.0hPa 404.800 MHz Type=RS41-NG ser=U2450583 Radiosonde
N7ZDX-2U24505832022-12-06 01:09:2143.2395-114.887808711264Clb=-11.6m/s t=-54.6C h=2.2% p=-1.0hPa 404.800 MHz Type=RS41-NG ser=U2450583 Radiosonde
N7ZDX-2U24505832022-12-06 01:08:1743.2367-114.904698312110Clb=-14.3m/s t=-54.1C h=1.7% p=-1.0hPa 404.800 MHz Type=RS41-NG ser=U2450583 Radiosonde
N7ZDX-2U24505832022-12-06 01:07:1543.2326-114.923719613018Clb=-16.6m/s t=-54.7C h=1.5% p=-1.0hPa 404.800 MHz Type=RS41-NG ser=U2450583 Radiosonde
N7ZDX-2U24505832022-12-06 01:06:4243.2312-114.9449210214028Clb=-15.0m/s t=-54.2C h=1.3% p=-1.0hPa 404.800 MHz Type=RS41-NG ser=U2450583 Radiosonde
N7ZDX-2U24505832022-12-06 01:06:2943.2319-114.964909314782Clb=-12.4m/s t=-56.6C h=1.5% p=-1.0hPa 404.800 MHz Type=RS41-NG ser=U2450583 Radiosonde
N7ZDX-2U24505832022-12-06 01:05:5843.2325-114.982938915722Clb=-16.7m/s t=-56.5C h=1.4% p=-1.0hPa 404.800 MHz Type=RS41-NG ser=U2450583 Radiosonde
N7ZDX-2U24505832022-12-06 01:05:4543.2338-114.998977016720Clb=-13.6m/s t=-58.9C h=1.6% p=-1.0hPa 404.800 MHz Type=RS41-NG ser=U2450583 Radiosonde
N7ZDX-2U24505832022-12-06 01:05:0543.2342-115.012958517660Clb=-15.1m/s t=-60.2C h=1.6% p=-1.0hPa 404.800 MHz Type=RS41-NG ser=U2450583 Radiosonde
N7ZDX-2U24505832022-12-06 01:04:5543.238-115.0291035918546Clb=-13.4m/s t=-63.0C h=1.7% p=-1.0hPa 404.800 MHz Type=RS41-NG ser=U2450583 Radiosonde
N7ZDX-2U24505832022-12-06 01:03:4743.2397-115.0431116719437Clb=-14.2m/s t=-60.4C h=1.3% p=-1.0hPa 404.800 MHz Type=RS41-NG ser=U2450583 Radiosonde
N7ZDX-2U24505832022-12-06 01:02:2643.2449-115.0551216120441Clb=-15.3m/s t=-58.9C h=1.1% p=-1.0hPa 404.800 MHz Type=RS41-NG ser=U2450583 Radiosonde
N7ZDX-2U24505832022-12-06 01:00:5843.2501-115.0651383321591Clb=-17.7m/s t=-56.6C h=0.9% p=-1.0hPa 404.800 MHz Type=RS41-NG ser=U2450583 Radiosonde
N7ZDX-2U24505832022-12-06 00:59:3443.2518-115.071113322825Clb=-22.4m/s t=-59.8C h=1.1% p=-1.0hPa 404.800 MHz Type=RS41-NG ser=U2450583 Radiosonde
N7ZDX-2U24505832022-12-06 00:58:1043.2558-115.0761437224060Clb=-17.7m/s t=-60.4C h=1.1% p=-1.0hPa 404.800 MHz Type=RS41-NG ser=U2450583 Radiosonde
N7ZDX-2U24505832022-12-06 00:56:3943.2631-115.0821335025244Clb=-20.3m/s t=-56.6C h=0.8% p=-1.0hPa 404.800 MHz Type=RS41-NG ser=U2450583 Radiosonde
N7ZDX-2U24505832022-12-06 00:55:1143.2688-115.091578926894Clb=-27.9m/s t=-58.5C h=0.9% p=-1.0hPa 404.800 MHz Type=RS41-NG ser=U2450583 Radiosonde
N7ZDX-2U24505832022-12-06 00:53:3643.2766-115.0991377828782Clb=-28.6m/s t=-59.0C h=1.0% p=-1.0hPa 404.800 MHz Type=RS41-NG ser=U2450583 Radiosonde
N7ZDX-2U24505832022-12-06 00:51:5943.2823-115.1131279431016Clb=-38.7m/s t=-57.1C h=0.9% p=-1.0hPa 404.800 MHz Type=RS41-NG ser=U2450583 Radiosonde
N7ZDX-2U24505832022-12-06 00:50:5843.287-115.13310212233349Clb=-33.3m/s t=-52.9C h=0.7% p=-1.0hPa 404.800 MHz Type=RS41-NG ser=U2450583 Radiosonde
N7ZDX-2U24505832022-12-06 00:49:5743.291-115.16110115935072Clb=5.8m/s t=-53.3C h=0.7% p=-1.0hPa 404.800 MHz Type=RS41-NG ser=U2450583 Radiosonde
N7ZDX-2U24505832022-12-06 00:49:3743.3101-115.2649913133568Clb=8.3m/s t=-53.6C h=0.7% p=-1.0hPa 404.800 MHz Type=RS41-NG ser=U2450583 Radiosonde
N7ZDX-2U24505832022-12-06 00:49:3243.3128-115.28910510733191Clb=7.5m/s t=-54.7C h=0.7% p=-1.0hPa 404.800 MHz Type=RS41-NG ser=U2450583 Radiosonde
N7ZDX-2U24505832022-12-06 00:49:2943.3175-115.3118114132820Clb=-2.2m/s t=-56.4C h=0.9% p=-1.0hPa 404.800 MHz Type=RS41-NG ser=U2450583 Radiosonde
N7ZDX-2U24505832022-12-06 00:48:3543.3225-115.3319211532414Clb=13.9m/s t=-57.1C h=0.9% p=-1.0hPa 404.800 MHz Type=RS41-NG ser=U2450583 Radiosonde
N7ZDX-2U24505832022-12-06 00:46:4443.3281-115.3511229431973Clb=5.1m/s t=-56.3C h=0.9% p=-1.0hPa 404.800 MHz Type=RS41-NG ser=U2450583 Radiosonde
N7ZDX-2U24505832022-12-06 00:44:5743.3327-115.36657631536Clb=6.7m/s t=-56.1C h=0.8% p=-1.0hPa 404.800 MHz Type=RS41-NG ser=U2450583 Radiosonde
N7ZDX-2U24505832022-12-06 00:43:0743.3395-115.37913010431163Clb=1.8m/s t=-57.8C h=0.9% p=-1.0hPa 404.800 MHz Type=RS41-NG ser=U2450583 Radiosonde
N7ZDX-2U24505832022-12-06 00:41:1143.3486-115.39314811730827Clb=7.9m/s t=-58.4C h=0.9% p=-1.0hPa 404.800 MHz Type=RS41-NG ser=U2450583 Radiosonde
N7ZDX-2U24505832022-12-06 00:39:1943.3541-115.41111510230440Clb=-1.3m/s t=-59.6C h=1.0% p=-1.0hPa 404.800 MHz Type=RS41-NG ser=U2450583 Radiosonde
N7ZDX-2U24505832022-12-06 00:37:2443.3583-115.4231613530005Clb=3.7m/s t=-60.2C h=1.0% p=-1.0hPa 404.800 MHz Type=RS41-NG ser=U2450583 Radiosonde
N7ZDX-2U24505832022-12-06 00:35:4243.3616-115.435989629583Clb=11.2m/s t=-59.4C h=1.0% p=-1.0hPa 404.800 MHz Type=RS41-NG ser=U2450583 Radiosonde
N7ZDX-2U24505832022-12-06 00:34:4143.3647-115.4481075029222Clb=6.6m/s t=-60.0C h=1.0% p=-1.0hPa 404.800 MHz Type=RS41-NG ser=U2450583 Radiosonde
N7ZDX-2U24505832022-12-06 00:33:4043.3711-115.4591555028899Clb=-0.4m/s t=-59.4C h=1.0% p=-1.0hPa 404.800 MHz Type=RS41-NG ser=U2450583 Radiosonde
N7ZDX-2U24505832022-12-06 00:32:0243.4292-115.54502025500Clb=4.2m/s t=-58.5C h=1.0% p=-1.0hPa 404.800 MHz Type=RS41-NG ser=U2450583 Radiosonde
N7ZDX-2U24505832022-12-06 00:30:0643.4345-115.5481461925148Clb=9.1m/s t=-58.4C h=0.9% p=-1.0hPa 404.800 MHz Type=RS41-NG ser=U2450583 Radiosonde
N7ZDX-2U24505832022-12-06 00:28:1343.4407-115.552863324761Clb=6.8m/s t=-60.0C h=1.0% p=-1.0hPa 404.800 MHz Type=RS41-NG ser=U2450583 Radiosonde
N7ZDX-2U24505832022-12-06 00:26:1543.4444-115.5561621724392Clb=6.2m/s t=-59.6C h=1.1% p=-1.0hPa 404.800 MHz Type=RS41-NG ser=U2450583 Radiosonde
N7ZDX-2U24505832022-12-06 00:24:1643.4497-115.5611617224030Clb=9.0m/s t=-58.4C h=1.0% p=-1.0hPa 404.800 MHz Type=RS41-NG ser=U2450583 Radiosonde
N7ZDX-2U24505832022-12-06 00:22:2043.4558-115.5681417423689Clb=0.9m/s t=-57.3C h=1.0% p=-1.0hPa 404.800 MHz Type=RS41-NG ser=U2450583 Radiosonde
N7ZDX-2U24505832022-12-06 00:20:2743.4613-115.5732043723366Clb=6.0m/s t=-59.2C h=1.0% p=-1.0hPa 404.800 MHz Type=RS41-NG ser=U2450583 Radiosonde
N7ZDX-2U24505832022-12-06 00:18:3443.4659-115.5761356523030Clb=8.8m/s t=-58.3C h=1.0% p=-1.0hPa 404.800 MHz Type=RS41-NG ser=U2450583 Radiosonde
N7ZDX-2U24505832022-12-06 00:16:3943.4692-115.5814622678Clb=5.7m/s t=-57.4C h=1.0% p=-1.0hPa 404.800 MHz Type=RS41-NG ser=U2450583 Radiosonde
N7ZDX-2U24505832022-12-06 00:15:2543.4731-115.5851484422334Clb=6.1m/s t=-57.4C h=0.9% p=-1.0hPa 404.800 MHz Type=RS41-NG ser=U2450583 Radiosonde
N7ZDX-2U24505832022-12-06 00:14:3943.4791-115.591475721999Clb=7.1m/s t=-57.4C h=1.0% p=-1.0hPa 404.800 MHz Type=RS41-NG ser=U2450583 Radiosonde
N7ZDX-2U24505832022-12-06 00:13:5643.4855-115.5961546521667Clb=7.8m/s t=-57.3C h=0.9% p=-1.0hPa 404.800 MHz Type=RS41-NG ser=U2450583 Radiosonde
N7ZDX-2U24505832022-12-06 00:13:4043.4932-115.6041244121335Clb=5.4m/s t=-58.2C h=1.0% p=-1.0hPa 404.800 MHz Type=RS41-NG ser=U2450583 Radiosonde
N7ZDX-2U24505832022-12-06 00:13:3543.4979-115.6151165421010Clb=7.5m/s t=-60.1C h=1.3% p=-1.0hPa 404.800 MHz Type=RS41-NG ser=U2450583 Radiosonde
N7ZDX-2U24505832022-12-06 00:13:0043.5009-115.6271038920691Clb=3.7m/s t=-59.2C h=1.1% p=-1.0hPa 404.800 MHz Type=RS41-NG ser=U2450583 Radiosonde
N7ZDX-2U24505832022-12-06 00:12:5643.5049-115.6391198020388Clb=8.1m/s t=-58.8C h=1.1% p=-1.0hPa 404.800 MHz Type=RS41-NG ser=U2450583 Radiosonde
N7ZDX-2U24505832022-12-06 00:11:3843.5098-115.6511207220081Clb=7.2m/s t=-58.9C h=1.1% p=-1.0hPa 404.800 MHz Type=RS41-NG ser=U2450583 Radiosonde
N7ZDX-2U24505832022-12-06 00:09:4343.5148-115.6631216119766Clb=5.7m/s t=-60.5C h=1.3% p=-1.0hPa 404.800 MHz Type=RS41-NG ser=U2450583 Radiosonde
N7ZDX-2U24505832022-12-06 00:07:5143.5181-115.6761126719452Clb=5.8m/s t=-60.7C h=1.5% p=-1.0hPa 404.800 MHz Type=RS41-NG ser=U2450583 Radiosonde
N7ZDX-2U24505832022-12-06 00:06:0443.5207-115.69917019148Clb=6.0m/s t=-61.8C h=1.6% p=-1.0hPa 404.800 MHz Type=RS41-NG ser=U2450583 Radiosonde
N7ZDX-2U24505832022-12-06 00:04:1343.5221-115.703925018842Clb=2.9m/s t=-61.0C h=1.5% p=-1.0hPa 404.800 MHz Type=RS41-NG ser=U2450583 Radiosonde
N7ZDX-2U24505832022-12-06 00:03:1243.5233-115.7151025918554Clb=5.7m/s t=-62.1C h=1.7% p=-1.0hPa 404.800 MHz Type=RS41-NG ser=U2450583 Radiosonde
N7ZDX-2U24505832022-12-06 00:02:0943.5264-115.7281157418258Clb=6.1m/s t=-61.5C h=1.6% p=-1.0hPa 404.800 MHz Type=RS41-NG ser=U2450583 Radiosonde
N7ZDX-2U24505832022-12-06 00:01:0743.5309-115.744958317947Clb=5.8m/s t=-60.0C h=1.5% p=-1.0hPa 404.800 MHz Type=RS41-NG ser=U2450583 Radiosonde
N7ZDX-2U24505832022-12-06 00:00:5243.533-115.762957217636Clb=6.7m/s t=-59.1C h=1.5% p=-1.0hPa 404.800 MHz Type=RS41-NG ser=U2450583 Radiosonde
N7ZDX-2U24505832022-12-06 00:00:3743.5326-115.778876517326Clb=7.1m/s t=-58.7C h=1.4% p=-1.0hPa 404.800 MHz Type=RS41-NG ser=U2450583 Radiosonde
N7ZDX-2U24505832022-12-06 00:00:3043.5331-115.7921065017019Clb=6.5m/s t=-58.9C h=1.5% p=-1.0hPa 404.800 MHz Type=RS41-NG ser=U2450583 Radiosonde
N7ZDX-2U24505832022-12-05 23:58:5443.5343-115.805998016725Clb=4.0m/s t=-58.5C h=1.4% p=-1.0hPa 404.800 MHz Type=RS41-NG ser=U2450583 Radiosonde
N7ZDX-2U24505832022-12-05 23:57:0643.5351-115.82997016424Clb=3.9m/s t=-57.1C h=1.4% p=-1.0hPa 404.800 MHz Type=RS41-NG ser=U2450583 Radiosonde
N7ZDX-2U24505832022-12-05 23:56:0143.5372-115.8351027416151Clb=4.9m/s t=-56.9C h=1.4% p=-1.0hPa 404.800 MHz Type=RS41-NG ser=U2450583 Radiosonde
N7ZDX-2U24505832022-12-05 23:55:1443.541-115.851996715863Clb=2.5m/s t=-57.8C h=1.5% p=-1.0hPa 404.800 MHz Type=RS41-NG ser=U2450583 Radiosonde
N7ZDX-2U24505832022-12-05 23:53:3743.543-115.8681058915580Clb=4.3m/s t=-56.2C h=1.4% p=-1.0hPa 404.800 MHz Type=RS41-NG ser=U2450583 Radiosonde
N7ZDX-2U24505832022-12-05 23:51:5743.5442-115.885987615303Clb=4.5m/s t=-55.4C h=1.3% p=-1.0hPa 404.800 MHz Type=RS41-NG ser=U2450583 Radiosonde
N7ZDX-2U24505832022-12-05 23:51:1643.5452-115.902968515041Clb=5.6m/s t=-55.7C h=1.4% p=-1.0hPa 404.800 MHz Type=RS41-NG ser=U2450583 Radiosonde
N7ZDX-2U24505832022-12-05 23:51:0143.5467-115.9219010014774Clb=5.7m/s t=-55.4C h=1.4% p=-1.0hPa 404.800 MHz Type=RS41-NG ser=U2450583 Radiosonde
N7ZDX-2U24505832022-12-05 23:49:2643.548-115.94929314495Clb=5.1m/s t=-54.8C h=1.3% p=-1.0hPa 404.800 MHz Type=RS41-NG ser=U2450583 Radiosonde
N7ZDX-2U24505832022-12-05 23:47:5343.5497-115.959889114219Clb=4.8m/s t=-54.2C h=1.3% p=-1.0hPa 404.800 MHz Type=RS41-NG ser=U2450583 Radiosonde
N7ZDX-2U24505832022-12-05 23:46:5243.551-115.978938013931Clb=5.1m/s t=-53.5C h=1.3% p=-1.0hPa 404.800 MHz Type=RS41-NG ser=U2450583 Radiosonde
N7ZDX-2U24505832022-12-05 23:46:4443.5508-115.998888913647Clb=6.0m/s t=-55.0C h=1.5% p=-1.0hPa 404.800 MHz Type=RS41-NG ser=U2450583 Radiosonde
N7ZDX-2U24505832022-12-05 23:45:1543.5489-116.019779113378Clb=4.6m/s t=-54.4C h=1.5% p=-1.0hPa 404.800 MHz Type=RS41-NG ser=U2450583 Radiosonde
N7ZDX-2U24505832022-12-05 23:43:4943.5458-116.035796913100Clb=2.9m/s t=-55.3C h=1.7% p=-1.0hPa 404.800 MHz Type=RS41-NG ser=U2450583 Radiosonde
N7ZDX-2U24505832022-12-05 23:42:4843.5434-116.0528010912810Clb=3.3m/s t=-54.2C h=-1.0% p=-1.0hPa 404.800 MHz Type=RS41-NG ser=U2450583 Radiosonde
N7ZDX-2U24505832022-12-05 23:42:2743.5397-116.071717412535Clb=5.8m/s t=-54.5C h=-1.0% p=-1.0hPa 404.800 MHz Type=RS41-NG ser=U2450583 Radiosonde
N7ZDX-2U24505832022-12-05 23:41:0543.5358-116.086667212279Clb=4.0m/s t=-54.8C h=-1.0% p=-1.0hPa 404.800 MHz Type=RS41-NG ser=U2450583 Radiosonde
N7ZDX-2U24505832022-12-05 23:39:4543.532-116.1696512015Clb=5.0m/s t=-273.0C h=-1.0% p=-1.0hPa 404.800 MHz Type=RS41-NG ser=U2450583 Radiosonde
N7ZDX-2U24505832022-12-05 23:32:5043.5164-116.1843151310046Clb=9.3m/s t=-54.4C h=-1.0% p=-1.0hPa 404.800 MHz Type=RS41-NG ser=U2450583 Radiosonde
N7ZDX-2U24505832022-12-05 23:30:3543.5195-116.181207269557Clb=4.6m/s t=-53.3C h=-1.0% p=-1.0hPa 404.800 MHz Type=RS41-NG ser=U2450583 Radiosonde
N7ZDX-2U24505832022-12-05 23:29:3443.5221-116.177243469315Clb=4.9m/s t=-53.4C h=-1.0% p=-1.0hPa 404.800 MHz Type=RS41-NG ser=U2450583 Radiosonde
N7ZDX-2U24505832022-12-05 23:28:4243.5263-116.163241599029Clb=4.4m/s t=-52.1C h=-1.0% p=-1.0hPa 404.800 MHz Type=RS41-NG ser=U2450583 Radiosonde
N7ZDX-2U24505832022-12-05 23:27:3243.5312-116.151228728805Clb=4.5m/s t=-50.2C h=-1.0% p=-1.0hPa 404.800 MHz Type=RS41-NG ser=U2450583 Radiosonde
N7ZDX-2U24505832022-12-05 23:26:3143.5385-116.138220788532Clb=4.5m/s t=-48.2C h=-1.0% p=-1.0hPa 404.800 MHz Type=RS41-NG ser=U2450583 Radiosonde
N7ZDX-2U24505832022-12-05 23:25:3043.5456-116.126227788288Clb=4.9m/s t=-46.3C h=-1.0% p=-1.0hPa 404.800 MHz Type=RS41-NG ser=U2450583 Radiosonde
N7ZDX-2U24505832022-12-05 23:24:3443.5518-116.115229808057Clb=2.9m/s t=-44.8C h=-1.0% p=-1.0hPa 404.800 MHz Type=RS41-NG ser=U2450583 Radiosonde
N7ZDX-2U24505832022-12-05 23:23:2843.5578-116.103228697793Clb=5.9m/s t=-273.0C h=-1.0% p=-1.0hPa 404.800 MHz Type=RS41-NG ser=U2450583 Radiosonde
N7ZDX-2U24505832022-12-05 23:13:1843.5726-116.15991464446Clb=4.9m/s t=-19.8C h=-1.0% p=-1.0hPa 404.800 MHz Type=RS41 ser=U2450583 Radiosonde
N7ZDX-2U24505832022-12-05 23:12:1743.5727-116.16489284232Clb=6.5m/s t=-18.7C h=-1.0% p=-1.0hPa 404.800 MHz Type=RS41 ser=U2450583 Radiosonde
N7ZDX-2U24505832022-12-05 23:11:1643.5735-116.171103593916Clb=5.1m/s t=-273.0C h=-1.0% p=-1.0hPa 404.800 MHz Type=RS41 ser=U2450583 Radiosonde